createdAt,value
2022-08-08T00:01:08.073Z,4.75
2022-08-08T00:03:43.346Z,5.00
2022-08-08T00:06:28.574Z,5.10
2022-08-08T00:09:07.637Z,5.03
2022-08-08T00:11:46.911Z,6.90
2022-08-08T00:14:48.118Z,7.18
2022-08-08T00:17:23.869Z,5.35
2022-08-08T00:19:56.233Z,5.25
2022-08-08T00:22:30.349Z,4.82
2022-08-08T00:25:01.174Z,5.00
2022-08-08T00:27:34.810Z,4.95
2022-08-08T00:30:07.635Z,6.15
2022-08-08T00:32:46.055Z,6.00
2022-08-08T00:35:34.682Z,4.82
2022-08-08T00:38:32.082Z,4.53
2022-08-08T00:41:55.230Z,5.32
2022-08-08T00:44:39.343Z,5.70
2022-08-08T00:47:23.425Z,4.95
2022-08-08T00:50:21.979Z,5.00
2022-08-08T00:52:54.193Z,7.00
2022-08-08T00:55:53.652Z,7.95
2022-08-08T00:58:54.397Z,8.65
2022-08-08T01:01:37.683Z,5.00
2022-08-08T01:04:29.804Z,4.95
2022-08-08T01:07:13.239Z,4.80
2022-08-08T01:10:09.050Z,6.95
2022-08-08T01:12:55.823Z,4.25
2022-08-08T01:15:44.519Z,5.57
2022-08-08T01:18:52.385Z,6.38
2022-08-08T01:22:10.251Z,4.35
2022-08-08T01:24:41.493Z,4.97
2022-08-08T01:27:46.317Z,4.50
2022-08-08T01:30:31.266Z,5.00
2022-08-08T01:33:23.393Z,4.60
2022-08-08T01:36:07.698Z,6.07
2022-08-08T01:38:53.797Z,4.88
2022-08-08T01:41:34.190Z,4.93
2022-08-08T01:44:07.819Z,4.88
2022-08-08T01:46:52.358Z,5.18
2022-08-08T01:49:37.738Z,5.90
2022-08-08T01:53:01.817Z,4.55
2022-08-08T01:55:19.646Z,6.13
2022-08-08T01:58:12.655Z,6.35
2022-08-08T02:00:48.387Z,5.20
2022-08-08T02:03:57.078Z,4.38
2022-08-08T02:06:32.286Z,4.15
2022-08-08T02:09:17.532Z,6.53
2022-08-08T02:11:59.837Z,5.00
2022-08-08T02:14:34.951Z,4.60
2022-08-08T02:17:26.729Z,5.43
2022-08-08T02:20:15.931Z,6.18
2022-08-08T02:22:59.899Z,4.75
2022-08-08T02:25:47.040Z,6.60
2022-08-08T02:28:19.938Z,6.25
2022-08-08T02:30:58.111Z,5.13
2022-08-08T02:34:00.316Z,6.50
2022-08-08T02:36:41.375Z,5.43
2022-08-08T02:39:41.231Z,6.70
2022-08-08T02:42:36.252Z,6.70
2022-08-08T02:45:21.378Z,4.78
2022-08-08T02:48:05.256Z,5.45
2022-08-08T02:50:55.828Z,4.60
2022-08-08T02:53:44.421Z,4.82
2022-08-08T02:56:30.404Z,5.00
2022-08-08T02:59:56.876Z,6.28
2022-08-08T03:02:33.529Z,5.70
2022-08-08T03:05:16.017Z,5.43
2022-08-08T03:08:05.373Z,5.38
2022-08-08T03:10:53.315Z,6.57
2022-08-08T03:16:01.860Z,7.03
2022-08-08T03:16:35.525Z,6.25
2022-08-08T03:19:19.952Z,6.88
2022-08-08T03:21:58.883Z,10.00
2022-08-08T03:24:30.002Z,5.82
2022-08-08T03:27:12.140Z,6.05
2022-08-08T03:29:55.335Z,5.88
2022-08-08T03:32:47.503Z,5.90
2022-08-08T03:35:30.125Z,6.18
2022-08-08T03:38:54.075Z,5.20
2022-08-08T03:40:53.009Z,6.00
2022-08-08T03:43:21.704Z,5.90
2022-08-08T03:46:05.095Z,6.57
2022-08-08T03:49:09.987Z,5.28
2022-08-08T03:51:26.597Z,5.15
2022-08-08T03:54:15.655Z,5.28
2022-08-08T03:58:09.676Z,8.88
2022-08-08T04:00:02.994Z,5.97
2022-08-08T04:02:47.272Z,5.45
2022-08-08T04:05:28.000Z,6.07
2022-08-08T04:07:57.950Z,5.15
2022-08-08T04:10:32.032Z,8.82
2022-08-08T04:13:08.285Z,6.88
2022-08-08T04:16:03.604Z,6.88
2022-08-08T04:18:41.864Z,5.75
2022-08-08T04:21:13.658Z,5.88
2022-08-08T04:24:05.506Z,7.43
2022-08-08T04:26:56.675Z,5.35
2022-08-08T04:29:27.261Z,5.75
2022-08-08T04:31:59.273Z,7.63
2022-08-08T04:34:31.852Z,6.07
2022-08-08T04:37:05.362Z,6.50
2022-08-08T04:40:03.601Z,6.03
2022-08-08T04:42:25.973Z,5.95
2022-08-08T04:44:57.833Z,7.60
2022-08-08T04:47:27.463Z,7.18
2022-08-08T04:50:01.259Z,5.80
2022-08-08T04:52:35.060Z,6.75
2022-08-08T04:55:04.386Z,6.00
2022-08-08T04:57:35.055Z,7.63
2022-08-08T05:00:05.587Z,6.97
2022-08-08T05:02:34.375Z,7.43
2022-08-08T05:05:07.375Z,5.72
2022-08-08T05:07:45.117Z,6.70
2022-08-08T05:10:13.985Z,5.78
2022-08-08T05:13:00.065Z,6.00
2022-08-08T05:16:51.029Z,8.40
2022-08-08T05:18:21.094Z,5.50
2022-08-08T05:20:52.070Z,5.82
2022-08-08T05:23:22.031Z,7.88
2022-08-08T05:25:51.599Z,7.20
2022-08-08T05:28:41.479Z,6.88
2022-08-08T05:32:02.397Z,7.50
2022-08-08T05:33:59.965Z,5.85
2022-08-08T05:36:28.960Z,5.35
2022-08-08T05:38:59.623Z,6.22
2022-08-08T05:41:28.261Z,7.93
2022-08-08T05:44:04.633Z,6.05
2022-08-08T05:46:34.953Z,6.72
2022-08-08T05:49:11.039Z,6.50
2022-08-08T05:51:49.207Z,8.45
2022-08-08T05:54:28.590Z,6.68
2022-08-08T05:57:09.030Z,6.75
2022-08-08T05:59:58.765Z,6.20
2022-08-08T06:02:48.003Z,5.60
2022-08-08T06:05:33.646Z,7.35
2022-08-08T06:08:09.736Z,6.78
2022-08-08T06:10:41.058Z,7.15
2022-08-08T06:13:09.771Z,7.20
2022-08-08T06:15:51.359Z,5.72
2022-08-08T06:18:27.732Z,7.07
2022-08-08T06:20:57.531Z,6.75
2022-08-08T06:23:48.931Z,9.55
2022-08-08T06:26:39.131Z,5.70
2022-08-08T06:29:26.916Z,6.03
2022-08-08T06:32:10.406Z,6.13
2022-08-08T06:34:42.463Z,6.43
2022-08-08T06:37:25.443Z,6.95
2022-08-08T06:40:07.325Z,6.07
2022-08-08T06:42:56.668Z,5.53
2022-08-08T06:45:25.465Z,7.38
2022-08-08T06:48:01.483Z,5.32
2022-08-08T06:50:33.860Z,6.13
2022-08-08T06:53:09.998Z,5.40
2022-08-08T06:55:46.869Z,6.72
2022-08-08T06:58:18.562Z,5.53
2022-08-08T07:00:51.332Z,5.25
2022-08-08T07:03:52.200Z,7.15
2022-08-08T07:06:29.632Z,6.75
2022-08-08T07:08:59.572Z,6.68
2022-08-08T07:11:51.166Z,5.13
2022-08-08T07:14:20.932Z,5.10
2022-08-08T07:16:54.024Z,6.97
2022-08-08T07:19:34.406Z,5.20
2022-08-08T07:22:12.077Z,8.50
2022-08-08T07:24:53.896Z,6.40
2022-08-08T07:27:35.459Z,9.85
2022-08-08T07:30:21.304Z,14.07
2022-08-08T07:32:54.820Z,11.43
2022-08-08T07:35:29.083Z,10.75
2022-08-08T07:38:09.757Z,9.02
2022-08-08T07:40:47.194Z,7.43
2022-08-08T07:43:16.856Z,10.48
2022-08-08T07:46:18.409Z,10.55
2022-08-08T07:48:49.222Z,15.50
2022-08-08T07:51:23.135Z,8.80
2022-08-08T07:54:24.062Z,9.85
2022-08-08T07:57:09.126Z,12.15
2022-08-08T07:59:54.579Z,19.55
2022-08-08T08:02:34.864Z,15.55
2022-08-08T08:05:15.414Z,19.48
2022-08-08T08:07:45.951Z,8.93
2022-08-08T08:10:30.372Z,11.15
2022-08-08T08:13:25.631Z,13.30
2022-08-08T08:16:13.200Z,12.45
2022-08-08T08:18:52.119Z,11.57
2022-08-08T08:21:35.461Z,13.75
2022-08-08T08:24:18.729Z,13.80
2022-08-08T08:26:52.960Z,10.40
2022-08-08T08:29:24.164Z,14.73
2022-08-08T08:31:58.363Z,15.55
2022-08-08T08:34:33.522Z,17.15
2022-08-08T08:37:08.108Z,11.80
2022-08-08T08:39:59.720Z,23.52
2022-08-08T08:42:29.019Z,12.32
2022-08-08T08:45:20.668Z,20.55
2022-08-08T08:47:53.259Z,8.43
2022-08-08T08:50:32.411Z,8.13
2022-08-08T08:53:27.873Z,12.02
2022-08-08T08:56:01.203Z,8.48
2022-08-08T08:58:37.946Z,9.45
2022-08-08T09:01:09.726Z,13.65
2022-08-08T09:03:46.675Z,9.23
2022-08-08T09:06:28.663Z,13.20
2022-08-08T09:09:26.111Z,21.58
2022-08-08T09:12:06.044Z,12.82
2022-08-08T09:14:42.272Z,21.38
2022-08-08T09:17:18.253Z,13.18
2022-08-08T09:21:57.058Z,14.90
2022-08-08T09:22:39.434Z,13.13
2022-08-08T09:25:10.563Z,10.95
2022-08-08T09:27:56.236Z,18.17
2022-08-08T09:30:29.862Z,16.50
2022-08-08T09:33:12.663Z,16.10
2022-08-08T09:35:51.408Z,15.35
2022-08-08T09:38:53.244Z,24.23
2022-08-08T09:41:55.073Z,11.48
2022-08-08T09:44:34.321Z,11.20
2022-08-08T09:48:02.444Z,9.65
2022-08-08T09:50:01.396Z,12.82
2022-08-08T09:52:56.268Z,13.93
2022-08-08T09:55:51.873Z,9.55
2022-08-08T09:58:25.748Z,15.90
2022-08-08T10:00:59.006Z,8.55
2022-08-08T10:03:33.853Z,10.80
2022-08-08T10:06:17.908Z,11.88
2022-08-08T10:08:47.329Z,13.75
2022-08-08T10:12:26.406Z,16.40
2022-08-08T10:14:10.833Z,14.48
2022-08-08T10:16:59.384Z,11.07
2022-08-08T10:19:57.407Z,30.92
2022-08-08T10:22:28.282Z,17.40
2022-08-08T10:25:05.702Z,13.57
2022-08-08T10:27:43.105Z,14.50
2022-08-08T10:30:16.208Z,13.90
2022-08-08T10:33:02.125Z,25.52
2022-08-08T10:36:08.219Z,16.77
2022-08-08T10:38:24.966Z,9.90
2022-08-08T10:40:55.095Z,12.55
2022-08-08T10:43:27.253Z,11.43
2022-08-08T10:46:03.461Z,14.95
2022-08-08T10:48:56.885Z,15.32
2022-08-08T10:51:31.661Z,11.35
2022-08-08T10:54:25.418Z,13.60
2022-08-08T10:56:58.938Z,18.52
2022-08-08T10:59:31.131Z,13.25
2022-08-08T11:02:02.990Z,20.80
2022-08-08T11:04:39.265Z,13.70
2022-08-08T11:07:15.002Z,10.43
2022-08-08T11:09:57.662Z,13.25
2022-08-08T11:12:28.785Z,13.82
2022-08-08T11:14:59.963Z,14.05
2022-08-08T11:18:01.051Z,12.40
2022-08-08T11:20:27.345Z,13.38
2022-08-08T11:22:59.990Z,15.98
2022-08-08T11:25:51.736Z,10.98
2022-08-08T11:28:29.760Z,16.58
2022-08-08T11:31:03.945Z,24.35
2022-08-08T11:33:51.966Z,14.00
2022-08-08T11:36:29.195Z,18.95
2022-08-08T11:38:59.479Z,11.23
2022-08-08T11:41:32.381Z,9.25
2022-08-08T11:44:06.181Z,16.55
2022-08-08T11:46:37.527Z,13.02
2022-08-08T11:49:11.478Z,13.18
2022-08-08T11:51:50.708Z,12.38
2022-08-08T11:54:33.557Z,9.70
2022-08-08T11:57:14.429Z,11.27
2022-08-08T12:00:00.649Z,11.60
2022-08-08T12:02:33.759Z,11.18
2022-08-08T12:05:07.523Z,11.93
2022-08-08T12:07:50.934Z,9.73
2022-08-08T12:10:22.758Z,9.18
2022-08-08T12:13:03.065Z,9.77
2022-08-08T12:15:43.000Z,13.70
2022-08-08T12:18:24.538Z,12.60
2022-08-08T12:20:55.238Z,13.65
2022-08-08T12:23:43.861Z,13.23
2022-08-08T12:26:38.353Z,10.50
2022-08-08T12:29:40.420Z,10.65
2022-08-08T12:32:17.255Z,9.38
2022-08-08T12:34:55.319Z,12.63
2022-08-08T12:37:40.092Z,11.07
2022-08-08T12:40:23.007Z,11.73
2022-08-08T12:42:55.759Z,10.10
2022-08-08T12:45:59.326Z,12.25
2022-08-08T12:48:36.892Z,9.25
2022-08-08T12:51:11.642Z,9.77
2022-08-08T12:53:58.608Z,12.43
2022-08-08T12:56:34.751Z,15.88
2022-08-08T12:59:16.145Z,11.85
2022-08-08T13:01:52.728Z,17.25
2022-08-08T13:04:26.013Z,14.23
2022-08-08T13:07:00.844Z,12.02
2022-08-08T13:09:34.107Z,10.98
2022-08-08T13:12:37.661Z,14.85
2022-08-08T13:15:13.666Z,14.10
2022-08-08T13:17:54.108Z,13.88
2022-08-08T13:20:32.101Z,17.80
2022-08-08T13:23:35.256Z,10.82
2022-08-08T13:25:59.391Z,13.70
2022-08-08T13:28:32.768Z,10.13
2022-08-08T13:31:05.329Z,8.68
2022-08-08T13:33:42.259Z,9.93
2022-08-08T13:36:11.998Z,13.95
2022-08-08T13:38:40.900Z,12.63
2022-08-08T13:41:16.635Z,10.20
2022-08-08T13:43:47.166Z,15.73
2022-08-08T13:46:27.295Z,8.75
2022-08-08T13:49:11.720Z,9.00
2022-08-08T13:52:00.874Z,11.32
2022-08-08T13:54:31.644Z,8.50
2022-08-08T13:57:01.911Z,8.80
2022-08-08T13:59:32.630Z,10.30
2022-08-08T14:02:15.124Z,11.43
2022-08-08T14:04:57.667Z,8.27
2022-08-08T14:07:42.383Z,10.75
2022-08-08T14:10:17.168Z,8.88
2022-08-08T14:12:49.638Z,9.43
2022-08-08T14:15:31.254Z,16.08
2022-08-08T14:18:36.139Z,11.57
2022-08-08T14:21:07.928Z,17.50
2022-08-08T14:24:04.401Z,18.52
2022-08-08T14:26:34.858Z,24.20
2022-08-08T14:29:06.140Z,22.38
2022-08-08T14:32:09.311Z,25.38
2022-08-08T14:34:39.966Z,16.02
2022-08-08T14:37:12.913Z,13.02
2022-08-08T14:39:47.554Z,11.65
2022-08-08T14:42:17.560Z,10.10
2022-08-08T14:45:00.302Z,14.32
2022-08-08T14:47:36.160Z,9.80
2022-08-08T14:50:15.040Z,8.43
2022-08-08T14:55:47.315Z,10.82
2022-08-08T14:58:30.435Z,10.02
2022-08-08T15:00:58.739Z,7.97
2022-08-08T15:03:27.117Z,11.52
2022-08-08T15:06:05.206Z,10.18
2022-08-08T15:08:38.512Z,9.00
2022-08-08T15:11:21.551Z,15.23
2022-08-08T15:14:01.718Z,8.60
2022-08-08T15:16:34.353Z,10.98
2022-08-08T15:19:04.345Z,10.13
2022-08-08T15:21:34.507Z,12.25
2022-08-08T15:24:12.844Z,16.25
2022-08-08T15:26:46.653Z,14.30
2022-08-08T15:29:22.450Z,10.00
2022-08-08T15:32:18.077Z,34.60
2022-08-08T15:34:41.408Z,21.40
2022-08-08T15:37:13.057Z,14.65
2022-08-08T15:39:41.573Z,12.30
2022-08-08T15:42:17.823Z,36.47
2022-08-08T15:44:59.139Z,21.95
2022-08-08T15:47:27.348Z,14.13
2022-08-08T15:49:56.067Z,10.18
2022-08-08T15:52:25.884Z,29.90
2022-08-08T15:54:55.331Z,17.08
2022-08-08T15:57:24.311Z,12.48
2022-08-08T16:00:06.511Z,11.70
2022-08-08T16:02:44.631Z,18.70
2022-08-08T16:05:20.661Z,36.05
2022-08-08T16:07:53.941Z,19.20
2022-08-08T16:13:12.068Z,11.93
2022-08-08T16:13:34.804Z,13.18
2022-08-08T16:16:12.873Z,28.08
2022-08-08T16:18:53.439Z,13.65
2022-08-08T16:21:30.201Z,11.65
2022-08-08T16:24:01.482Z,12.25
2022-08-08T16:26:34.107Z,13.63
2022-08-08T16:29:07.774Z,12.15
2022-08-08T16:31:40.467Z,16.58
2022-08-08T16:34:09.025Z,10.77
2022-08-08T16:36:38.141Z,24.02
2022-08-08T16:39:27.840Z,15.43
2022-08-08T16:42:01.097Z,12.10
2022-08-08T16:44:34.379Z,10.10
2022-08-08T16:47:40.548Z,15.23
2022-08-08T16:50:14.830Z,11.40
2022-08-08T16:55:00.525Z,16.02
2022-08-08T16:55:54.376Z,8.55
2022-08-08T16:58:25.626Z,12.13
2022-08-08T17:00:55.366Z,12.48
2022-08-08T17:03:58.621Z,9.68
2022-08-08T17:06:36.421Z,15.02
2022-08-08T17:09:04.944Z,13.65
2022-08-08T17:11:39.384Z,11.80
2022-08-08T17:14:18.631Z,10.90
2022-08-08T17:16:51.933Z,10.77
2022-08-08T17:19:26.818Z,14.00
2022-08-08T17:21:56.011Z,17.17
2022-08-08T17:24:27.043Z,14.65
2022-08-08T17:27:04.707Z,16.05
2022-08-08T17:29:34.364Z,35.30
2022-08-08T17:32:07.837Z,35.92
2022-08-08T17:35:00.040Z,28.60
2022-08-08T17:37:27.612Z,43.45
2022-08-08T17:40:10.823Z,50.80
2022-08-08T17:42:47.124Z,59.90
2022-08-08T17:45:23.508Z,48.08
2022-08-08T17:47:54.116Z,44.72
2022-08-08T17:50:23.981Z,61.35
2022-08-08T17:52:52.813Z,67.88
2022-08-08T17:56:05.410Z,88.47
2022-08-08T17:58:22.467Z,91.93
2022-08-08T18:00:57.193Z,67.50
2022-08-08T18:03:25.827Z,57.45
2022-08-08T18:05:54.188Z,56.58
2022-08-08T18:08:37.585Z,64.68
2022-08-08T18:11:15.290Z,55.35
2022-08-08T18:13:48.897Z,39.33
2022-08-08T18:16:23.085Z,42.92
2022-08-08T18:18:56.663Z,29.77
2022-08-08T18:22:00.548Z,22.65
2022-08-08T18:24:18.784Z,41.38
2022-08-08T18:26:53.857Z,86.93
2022-08-08T18:29:30.048Z,95.80
2022-08-08T18:32:04.059Z,80.05
2022-08-08T18:34:33.620Z,59.00
2022-08-08T18:37:08.604Z,43.53
2022-08-08T18:39:41.259Z,49.92
2022-08-08T18:42:15.831Z,54.30
2022-08-08T18:44:55.178Z,49.97
2022-08-08T18:47:25.173Z,49.00
2022-08-08T18:49:58.475Z,57.00
2022-08-08T18:52:29.913Z,76.63
2022-08-08T18:55:09.501Z,85.80
2022-08-08T18:57:40.988Z,63.78
2022-08-08T19:00:16.642Z,85.03
2022-08-08T19:02:55.245Z,67.80
2022-08-08T19:05:32.470Z,61.63
2022-08-08T19:08:25.175Z,87.18
2022-08-08T19:10:58.563Z,67.57
2022-08-08T19:13:38.536Z,80.85
2022-08-08T19:16:18.938Z,67.15
2022-08-08T19:18:53.267Z,66.20
2022-08-08T19:21:33.669Z,33.15
2022-08-08T19:24:49.109Z,29.88
2022-08-08T19:27:07.838Z,39.65
2022-08-08T19:29:40.733Z,63.90
2022-08-08T19:32:13.284Z,45.55
2022-08-08T19:34:51.463Z,46.97
2022-08-08T19:37:43.515Z,81.40
2022-08-08T19:40:14.629Z,68.97
2022-08-08T19:42:44.855Z,50.83
2022-08-08T19:45:14.225Z,28.63
2022-08-08T19:48:03.422Z,15.00
2022-08-08T19:50:33.131Z,13.90
2022-08-08T19:53:01.389Z,11.13
2022-08-08T19:55:33.996Z,8.18
2022-08-08T19:58:04.090Z,9.18
2022-08-08T20:00:37.292Z,14.00
2022-08-08T20:03:14.513Z,10.05
2022-08-08T20:06:15.243Z,9.88
2022-08-08T20:08:48.023Z,9.23
2022-08-08T20:11:16.769Z,7.18
2022-08-08T20:14:32.760Z,7.90
2022-08-08T20:16:37.590Z,8.95
2022-08-08T20:19:10.901Z,9.02
2022-08-08T20:21:41.536Z,8.50
2022-08-08T20:24:10.718Z,7.93
2022-08-08T20:26:49.187Z,9.25
2022-08-08T20:29:18.268Z,12.07
2022-08-08T20:32:08.066Z,6.35
2022-08-08T20:34:38.009Z,11.40
2022-08-08T20:37:15.913Z,7.72
2022-08-08T20:39:51.236Z,10.43
2022-08-08T20:42:28.473Z,9.30
2022-08-08T20:44:58.864Z,9.75
2022-08-08T20:47:28.846Z,9.93
2022-08-08T20:50:10.015Z,6.57
2022-08-08T20:52:39.393Z,8.13
2022-08-08T20:55:22.749Z,12.07
2022-08-08T20:57:58.085Z,6.95
2022-08-08T21:00:27.031Z,7.93
2022-08-08T21:02:55.672Z,7.28
2022-08-08T21:05:31.793Z,10.25
2022-08-08T21:08:36.834Z,9.07
2022-08-08T21:10:50.400Z,9.75
2022-08-08T21:13:18.768Z,8.88
2022-08-08T21:16:05.717Z,11.05
2022-08-08T21:18:35.913Z,11.93
2022-08-08T21:21:20.629Z,13.10
2022-08-08T21:24:19.215Z,15.13
2022-08-08T21:26:54.462Z,32.80
2022-08-08T21:30:05.630Z,33.25
2022-08-08T21:32:19.270Z,44.08
2022-08-08T21:34:56.548Z,39.05
2022-08-08T21:37:54.377Z,39.28
2022-08-08T21:40:30.842Z,41.17
2022-08-08T21:43:00.090Z,24.70
2022-08-08T21:48:00.556Z,18.27
2022-08-08T21:48:21.736Z,22.85
2022-08-08T21:51:00.287Z,23.40
2022-08-08T21:54:22.739Z,20.75
2022-08-08T21:56:34.126Z,18.25
2022-08-08T21:59:09.689Z,8.98
2022-08-08T22:01:41.306Z,21.25
2022-08-08T22:04:11.509Z,21.65
2022-08-08T22:06:40.947Z,13.95
2022-08-08T22:09:14.500Z,9.63
2022-08-08T22:12:02.420Z,9.05
2022-08-08T22:14:32.835Z,18.63
2022-08-08T22:17:03.009Z,13.57
2022-08-08T22:20:12.639Z,13.68
2022-08-08T22:22:28.746Z,8.35
2022-08-08T22:24:59.663Z,12.85
2022-08-08T22:28:00.542Z,17.10
2022-08-08T22:30:29.409Z,11.20
2022-08-08T22:32:58.542Z,10.45
2022-08-08T22:36:05.360Z,9.13
2022-08-08T22:38:17.580Z,6.28
2022-08-08T22:40:48.971Z,8.73
2022-08-08T22:43:18.000Z,12.02
2022-08-08T22:45:52.473Z,7.47
2022-08-08T22:48:22.554Z,6.85
2022-08-08T22:50:53.734Z,9.13
2022-08-08T22:54:30.868Z,8.10
2022-08-08T22:56:12.933Z,7.75
2022-08-08T22:58:42.840Z,7.38
2022-08-08T23:02:00.805Z,10.85
2022-08-08T23:04:01.500Z,10.15
2022-08-08T23:06:30.037Z,7.90
2022-08-08T23:09:00.285Z,8.10
2022-08-08T23:12:18.067Z,11.07
2022-08-08T23:14:21.456Z,6.05
2022-08-08T23:16:54.768Z,5.95
2022-08-08T23:19:26.979Z,6.45
2022-08-08T23:21:55.713Z,11.75
2022-08-08T23:24:24.157Z,15.95
2022-08-08T23:26:56.046Z,17.17
2022-08-08T23:29:27.204Z,46.47
2022-08-08T23:31:59.973Z,55.00
2022-08-08T23:34:29.511Z,28.13
2022-08-08T23:37:00.718Z,47.97
2022-08-08T23:39:42.147Z,43.10
2022-08-08T23:42:21.361Z,74.57
2022-08-08T23:44:50.649Z,97.93
2022-08-08T23:49:07.121Z,139.82
2022-08-08T23:50:30.883Z,94.43
2022-08-08T23:53:03.552Z,90.40
2022-08-08T23:55:38.252Z,81.38
2022-08-08T23:58:22.341Z,49.92
